createdAt,value
2018-04-07T00:00:16.431Z,67.96
2018-04-07T00:01:21.050Z,67.40
2018-04-07T00:02:15.909Z,67.58
2018-04-07T00:03:17.913Z,68.15
2018-04-07T00:04:16.426Z,68.35
2018-04-07T00:05:14.613Z,68.82
2018-04-07T00:06:22.419Z,69.01
2018-04-07T00:07:15.997Z,69.10
2018-04-07T00:08:16.926Z,69.10
2018-04-07T00:09:16.912Z,68.44
2018-04-07T00:10:25.362Z,68.44
2018-04-07T00:11:19.408Z,68.82
2018-04-07T00:12:17.909Z,68.44
2018-04-07T00:13:16.247Z,69.38
2018-04-07T00:14:16.476Z,69.57
2018-04-07T00:15:19.430Z,69.10
2018-04-07T00:16:18.447Z,69.96
2018-04-07T00:17:17.053Z,70.05
2018-04-07T00:18:18.929Z,70.05
2018-04-07T00:19:17.412Z,69.67
2018-04-07T00:20:17.674Z,69.57
2018-04-07T00:21:19.423Z,70.62
2018-04-07T00:22:19.921Z,70.53
2018-04-07T00:23:19.969Z,70.53
2018-04-07T00:24:19.882Z,70.53
2018-04-07T00:25:19.471Z,70.24
2018-04-07T00:26:26.452Z,70.53
2018-04-07T00:27:20.410Z,71.00
2018-04-07T00:28:20.905Z,71.47
2018-04-07T00:29:19.153Z,71.19
2018-04-07T00:30:19.234Z,71.38
2018-04-07T00:31:21.414Z,71.47
2018-04-07T00:32:19.610Z,71.47
2018-04-07T00:33:21.878Z,70.90
2018-04-07T00:34:20.912Z,71.19
2018-04-07T00:35:20.874Z,71.19
2018-04-07T00:36:21.908Z,70.90
2018-04-07T00:37:20.382Z,71.25
2018-04-07T00:38:22.450Z,71.28
2018-04-07T00:39:20.812Z,71.25
2018-04-07T00:40:21.032Z,71.53
2018-04-07T00:41:25.285Z,72.00
2018-04-07T00:42:23.442Z,72.10
2018-04-07T00:43:23.439Z,72.29
2018-04-07T00:44:23.424Z,72.48
2018-04-07T00:45:24.968Z,72.77
2018-04-07T00:46:22.866Z,72.77
2018-04-07T00:47:24.430Z,72.57
2018-04-07T00:48:24.371Z,72.77
2018-04-07T00:49:25.411Z,73.24
2018-04-07T00:50:25.442Z,72.96
2018-04-07T00:51:24.918Z,72.77
2018-04-07T00:52:27.962Z,72.86
2018-04-07T00:53:23.310Z,73.33
2018-04-07T00:54:26.955Z,72.57
2018-04-07T00:55:23.678Z,73.05
2018-04-07T00:56:27.452Z,72.67
2018-04-07T00:57:24.006Z,73.24
2018-04-07T00:58:27.910Z,73.90
2018-04-07T00:59:27.910Z,73.61
2018-04-07T01:00:31.422Z,74.28
2018-04-07T01:01:26.413Z,74.75
2018-04-07T01:02:27.196Z,74.95
2018-04-07T01:03:28.927Z,75.13
2018-04-07T01:04:25.179Z,74.66
2018-04-07T01:05:25.264Z,74.28
2018-04-07T01:06:25.480Z,73.61
2018-04-07T01:07:25.709Z,72.77
2018-04-07T01:08:29.425Z,73.43
2018-04-07T01:09:26.063Z,73.90
2018-04-07T01:10:27.922Z,73.52
2018-04-07T01:11:27.465Z,73.14
2018-04-07T01:12:29.413Z,72.77
2018-04-07T01:13:34.410Z,73.71
2018-04-07T01:14:27.855Z,74.09
2018-04-07T01:15:28.907Z,74.37
2018-04-07T01:16:27.233Z,73.90
2018-04-07T01:17:29.418Z,74.18
2018-04-07T01:18:30.443Z,74.56
2018-04-07T01:19:28.783Z,74.28
2018-04-07T01:20:28.023Z,74.28
2018-04-07T01:21:31.912Z,74.18
2018-04-07T01:22:28.394Z,75.13
2018-04-07T01:23:30.416Z,74.75
2018-04-07T01:24:30.418Z,75.42
2018-04-07T01:25:32.411Z,75.23
2018-04-07T01:26:29.866Z,75.04
2018-04-07T01:27:30.283Z,74.75
2018-04-07T01:28:30.946Z,74.90
2018-04-07T01:29:32.911Z,74.95
2018-04-07T01:30:34.442Z,74.66
2018-04-07T01:31:31.411Z,74.85
2018-04-07T01:32:31.926Z,74.28
2018-04-07T01:33:31.961Z,73.71
2018-04-07T01:34:31.907Z,73.52
2018-04-07T01:35:32.912Z,73.61
2018-04-07T01:36:37.419Z,73.80
2018-04-07T01:37:34.436Z,73.61
2018-04-07T01:38:31.766Z,73.52
2018-04-07T01:39:32.910Z,73.71
2018-04-07T01:40:32.908Z,74.09
2018-04-07T01:41:31.238Z,73.99
2018-04-07T01:42:33.411Z,74.66
2018-04-07T01:43:35.411Z,74.85
2018-04-07T01:44:33.413Z,75.32
2018-04-07T01:45:32.050Z,75.32
2018-04-07T01:46:33.915Z,75.89
2018-04-07T01:47:35.444Z,75.51
2018-04-07T01:48:36.448Z,75.60
2018-04-07T01:49:32.781Z,76.23
2018-04-07T01:50:34.036Z,76.42
2018-04-07T01:51:33.234Z,76.70
2018-04-07T01:52:33.492Z,76.70
2018-04-07T01:53:36.414Z,76.70
2018-04-07T01:54:34.930Z,76.23
2018-04-07T01:55:35.916Z,76.70
2018-04-07T01:56:35.298Z,76.51
2018-04-07T01:57:36.408Z,76.04
2018-04-07T01:58:34.606Z,75.95
2018-04-07T01:59:34.869Z,75.79
2018-04-07T02:00:35.023Z,75.47
2018-04-07T02:01:51.880Z,75.85
2018-04-07T02:02:38.940Z,76.27
2018-04-07T02:03:37.413Z,76.27
2018-04-07T02:04:37.419Z,76.46
2018-04-07T02:05:35.881Z,75.98
2018-04-07T02:06:36.096Z,76.23
2018-04-07T02:07:38.387Z,76.42
2018-04-07T02:08:39.453Z,76.55
2018-04-07T02:09:40.408Z,76.23
2018-04-07T02:10:38.414Z,76.89
2018-04-07T02:11:38.428Z,77.65
2018-04-07T02:12:47.931Z,77.56
2018-04-07T02:13:39.929Z,77.56
2018-04-07T02:14:38.909Z,77.27
2018-04-07T02:15:39.437Z,77.08
2018-04-07T02:16:39.412Z,77.18
2018-04-07T02:17:40.433Z,77.27
2018-04-07T02:18:38.927Z,77.84
2018-04-07T02:19:38.083Z,77.56
2018-04-07T02:20:39.916Z,76.89
2018-04-07T02:21:39.518Z,77.65
2018-04-07T02:22:40.414Z,77.75
2018-04-07T02:23:41.901Z,77.46
2018-04-07T02:24:42.881Z,77.75
2018-04-07T02:25:40.213Z,77.75
2018-04-07T02:26:39.421Z,77.18
2018-04-07T02:27:39.626Z,77.56
2018-04-07T02:28:41.416Z,77.65
2018-04-07T02:29:40.001Z,78.03
2018-04-07T02:30:55.924Z,78.22
2018-04-07T02:31:42.875Z,78.13
2018-04-07T02:32:42.427Z,77.46
2018-04-07T02:33:42.462Z,77.56
2018-04-07T02:34:40.942Z,76.70
2018-04-07T02:35:41.145Z,76.89
2018-04-07T02:36:42.933Z,77.08
2018-04-07T02:37:41.534Z,77.27
2018-04-07T02:38:43.467Z,78.22
2018-04-07T02:39:41.855Z,78.22
2018-04-07T02:40:41.999Z,77.84
2018-04-07T02:41:43.921Z,78.03
2018-04-07T02:42:43.234Z,77.94
2018-04-07T02:43:44.429Z,77.94
2018-04-07T02:44:42.808Z,78.50
2018-04-07T02:45:42.966Z,78.50
2018-04-07T02:46:43.118Z,78.31
2018-04-07T02:47:44.335Z,78.79
2018-04-07T02:48:44.558Z,79.45
2018-04-07T02:49:44.779Z,79.36
2018-04-07T02:50:44.210Z,79.74
2018-04-07T02:51:45.932Z,79.36
2018-04-07T02:52:47.933Z,79.79
2018-04-07T02:53:46.917Z,79.83
2018-04-07T02:54:46.431Z,80.02
2018-04-07T02:55:45.411Z,80.26
2018-04-07T02:56:47.373Z,79.74
2018-04-07T02:57:53.002Z,80.07
2018-04-07T02:58:47.908Z,80.07
2018-04-07T02:59:45.391Z,79.93
2018-04-07T03:00:47.462Z,80.36
2018-04-07T03:01:47.426Z,80.07
2018-04-07T03:02:45.817Z,80.74
2018-04-07T03:03:45.971Z,81.21
2018-04-07T03:04:47.925Z,80.64
2018-04-07T03:05:46.371Z,80.55
2018-04-07T03:06:48.455Z,80.83
2018-04-07T03:07:50.459Z,80.49
2018-04-07T03:09:02.427Z,80.49
2018-04-07T03:09:47.114Z,79.98
2018-04-07T03:10:49.467Z,80.11
2018-04-07T03:11:49.449Z,79.79
2018-04-07T03:12:49.408Z,80.30
2018-04-07T03:13:48.778Z,80.26
2018-04-07T03:14:47.876Z,80.64
2018-04-07T03:15:49.081Z,80.74
2018-04-07T03:16:50.910Z,81.02
2018-04-07T03:17:51.393Z,80.93
2018-04-07T03:18:52.455Z,80.93
2018-04-07T03:19:50.409Z,81.68
2018-04-07T03:20:49.038Z,80.93
2018-04-07T03:21:50.217Z,81.21
2018-04-07T03:22:49.426Z,80.93
2018-04-07T03:23:53.446Z,81.02
2018-04-07T03:24:49.766Z,81.21
2018-04-07T03:25:50.025Z,81.49
2018-04-07T03:26:53.907Z,81.30
2018-04-07T03:27:50.248Z,81.49
2018-04-07T03:28:52.413Z,81.21
2018-04-07T03:29:52.417Z,81.77
2018-04-07T03:30:50.791Z,82.34
2018-04-07T03:31:53.446Z,82.53
2018-04-07T03:32:54.908Z,82.53
2018-04-07T03:33:52.908Z,82.72
2018-04-07T03:34:52.912Z,82.72
2018-04-07T03:35:54.408Z,82.25
2018-04-07T03:36:55.405Z,81.59
2018-04-07T03:37:53.425Z,82.44
2018-04-07T03:38:54.860Z,81.87
2018-04-07T03:39:58.950Z,82.53
2018-04-07T03:40:52.420Z,82.72
2018-04-07T03:41:54.410Z,83.10
2018-04-07T03:42:52.766Z,83.58
2018-04-07T03:43:55.915Z,83.48
2018-04-07T03:44:54.149Z,83.39
2018-04-07T03:45:53.280Z,83.58
2018-04-07T03:46:54.906Z,83.48
2018-04-07T03:47:53.513Z,83.58
2018-04-07T03:48:55.427Z,83.01
2018-04-07T03:49:55.451Z,83.01
2018-04-07T03:50:54.043Z,82.82
2018-04-07T03:52:05.912Z,83.20
2018-04-07T03:52:54.373Z,83.10
2018-04-07T03:53:56.420Z,83.58
2018-04-07T03:55:02.479Z,83.76
2018-04-07T03:55:56.444Z,83.67
2018-04-07T03:57:51.611Z,83.76
2018-04-07T03:58:50.674Z,83.58
2018-04-07T03:59:47.197Z,83.39
2018-04-07T04:00:55.845Z,83.58
2018-04-07T04:01:49.133Z,84.14
2018-04-07T04:02:48.728Z,84.67
2018-04-07T04:03:49.671Z,83.91
2018-04-07T04:04:49.144Z,83.95
2018-04-07T04:05:48.279Z,84.23
2018-04-07T04:06:51.688Z,84.33
2018-04-07T04:08:00.161Z,84.23
2018-04-07T04:08:52.663Z,83.86
2018-04-07T04:09:50.662Z,83.20
2018-04-07T04:10:49.643Z,83.29
2018-04-07T04:11:52.670Z,84.10
2018-04-07T04:12:49.241Z,83.15
2018-04-07T04:13:51.165Z,84.10
2018-04-07T04:14:51.168Z,84.10
2018-04-07T04:15:49.768Z,84.05
2018-04-07T04:16:53.123Z,83.53
2018-04-07T04:17:50.959Z,83.72
2018-04-07T04:18:56.196Z,83.91
2018-04-07T04:19:50.649Z,84.67
2018-04-07T04:20:52.166Z,84.10
2018-04-07T04:21:52.688Z,84.48
2018-04-07T04:22:51.915Z,84.10
2018-04-07T04:23:58.670Z,84.48
2018-04-07T04:24:54.665Z,84.33
2018-04-07T04:26:07.166Z,84.52
2018-04-07T04:26:56.387Z,83.72
2018-04-07T04:27:53.163Z,83.82
2018-04-07T04:28:51.663Z,83.95
2018-04-07T04:29:56.647Z,84.01
2018-04-07T04:30:53.678Z,84.20
2018-04-07T04:31:53.670Z,84.39
2018-04-07T04:32:54.224Z,84.29
2018-04-07T04:33:53.419Z,84.39
2018-04-07T04:34:54.166Z,84.67
2018-04-07T04:35:53.778Z,84.48
2018-04-07T04:36:56.667Z,84.58
2018-04-07T04:37:54.006Z,84.86
2018-04-07T04:38:53.105Z,85.52
2018-04-07T04:39:54.351Z,85.61
2018-04-07T04:40:55.197Z,85.99
2018-04-07T04:41:55.176Z,85.99
2018-04-07T04:42:53.743Z,86.18
2018-04-07T04:43:53.965Z,86.09
2018-04-07T04:44:56.665Z,86.09
2018-04-07T04:45:54.297Z,85.99
2018-04-07T04:46:58.178Z,86.56
2018-04-07T04:48:10.221Z,86.47
2018-04-07T04:49:01.709Z,86.28
2018-04-07T04:49:56.666Z,86.37
2018-04-07T04:50:56.128Z,85.71
2018-04-07T04:51:57.230Z,85.80
2018-04-07T04:53:11.168Z,85.42
2018-04-07T04:54:01.160Z,84.77
2018-04-07T04:54:57.637Z,85.05
2018-04-07T04:55:56.243Z,84.48
2018-04-07T04:56:56.459Z,85.05
2018-04-07T04:58:00.208Z,84.86
2018-04-07T04:58:59.628Z,84.86
2018-04-07T04:59:58.672Z,84.20
2018-04-07T05:01:01.662Z,84.77
2018-04-07T05:01:59.182Z,85.14
2018-04-07T05:03:01.165Z,84.33
2018-04-07T05:03:57.542Z,84.52
2018-04-07T05:04:57.718Z,84.10
2018-04-07T05:06:00.719Z,83.95
2018-04-07T05:06:59.690Z,83.95
2018-04-07T05:07:58.201Z,84.14
2018-04-07T05:09:02.161Z,84.14
2018-04-07T05:09:59.664Z,84.14
2018-04-07T05:11:00.206Z,84.14
2018-04-07T05:12:02.061Z,84.33
2018-04-07T05:12:59.056Z,83.95
2018-04-07T05:14:00.716Z,83.95
2018-04-07T05:15:07.192Z,84.23
2018-04-07T05:16:01.159Z,84.23
2018-04-07T05:17:02.664Z,83.86
2018-04-07T05:17:59.861Z,83.48
2018-04-07T05:19:00.651Z,84.14
2018-04-07T05:20:03.164Z,84.33
2018-04-07T05:21:04.175Z,84.05
2018-04-07T05:22:03.166Z,84.05
2018-04-07T05:23:03.182Z,83.58
2018-04-07T05:24:03.716Z,82.76
2018-04-07T05:25:02.673Z,81.86
2018-04-07T05:26:02.699Z,80.15
2018-04-07T05:27:01.348Z,77.92
2018-04-07T05:28:04.175Z,75.84
2018-04-07T05:29:01.626Z,74.73
2018-04-07T05:30:01.858Z,72.97
2018-04-07T05:31:04.674Z,71.45
2018-04-07T05:32:03.664Z,70.21
2018-04-07T05:33:04.213Z,69.55
2018-04-07T05:34:05.169Z,69.08
2018-04-07T05:35:02.621Z,69.46
2018-04-07T05:36:04.672Z,68.07
2018-04-07T05:37:03.001Z,67.31
2018-04-07T05:38:05.160Z,66.30
2018-04-07T05:39:05.174Z,65.54
2018-04-07T05:40:03.536Z,64.40
2018-04-07T05:41:03.651Z,63.54
2018-04-07T05:42:05.683Z,62.88
2018-04-07T05:43:05.261Z,62.78
2018-04-07T05:44:04.096Z,63.01
2018-04-07T05:45:04.304Z,62.15
2018-04-07T05:46:04.512Z,61.87
2018-04-07T05:47:06.673Z,61.04
2018-04-07T05:48:08.662Z,59.42
2018-04-07T05:49:08.673Z,59.68
2018-04-07T05:50:05.264Z,59.23
2018-04-07T05:51:05.467Z,59.23
2018-04-07T05:52:08.674Z,59.61
2018-04-07T05:53:05.890Z,58.95
2018-04-07T05:54:07.090Z,59.80
2018-04-07T05:55:06.308Z,59.61
2018-04-07T05:56:06.520Z,59.33
2018-04-07T05:57:06.729Z,58.76
2018-04-07T05:58:08.674Z,59.27
2018-04-07T05:59:07.124Z,58.31
2018-04-07T06:00:07.339Z,58.03
2018-04-07T06:01:07.558Z,57.45
2018-04-07T06:02:07.760Z,58.12
2018-04-07T06:03:09.668Z,57.84
2018-04-07T06:04:08.124Z,56.72
2018-04-07T06:05:08.372Z,55.42
2018-04-07T06:06:08.543Z,54.85
2018-04-07T06:07:08.750Z,53.83
2018-04-07T06:08:08.956Z,54.49
2018-04-07T06:09:09.178Z,53.35
2018-04-07T06:10:11.166Z,53.19
2018-04-07T06:11:09.629Z,52.42
2018-04-07T06:12:09.843Z,51.25
2018-04-07T06:13:10.058Z,52.52
2018-04-07T06:14:10.272Z,52.30
2018-04-07T06:15:10.488Z,52.30
2018-04-07T06:16:10.698Z,52.20
2018-04-07T06:17:10.916Z,52.28
2018-04-07T06:18:11.135Z,53.13
2018-04-07T06:19:11.367Z,53.99
2018-04-07T06:20:11.552Z,54.66
2018-04-07T06:21:13.664Z,54.18
2018-04-07T06:22:11.991Z,53.70
2018-04-07T06:23:12.206Z,52.87
2018-04-07T06:24:12.409Z,52.59
2018-04-07T06:25:12.625Z,52.68
2018-04-07T06:26:12.839Z,51.76
2018-04-07T06:27:13.057Z,51.09
2018-04-07T06:28:13.283Z,50.57
2018-04-07T06:29:13.502Z,48.97
2018-04-07T06:30:14.734Z,47.25
2018-04-07T06:31:13.961Z,47.47
2018-04-07T06:32:14.185Z,46.13
2018-04-07T06:33:14.387Z,45.72
2018-04-07T06:34:14.612Z,46.20
2018-04-07T06:35:14.830Z,47.37
2018-04-07T06:36:15.040Z,46.89
2018-04-07T06:37:15.246Z,46.72
2018-04-07T06:38:15.455Z,46.06
2018-04-07T06:39:15.681Z,45.89
2018-04-07T06:40:15.896Z,45.31
2018-04-07T06:41:16.112Z,44.76
2018-04-07T06:42:16.340Z,44.00
2018-04-07T06:43:20.169Z,42.11
2018-04-07T06:44:18.671Z,42.20
2018-04-07T06:45:16.882Z,42.73
2018-04-07T06:46:17.103Z,43.04
2018-04-07T06:47:17.363Z,42.56
2018-04-07T06:48:20.187Z,42.77
2018-04-07T06:49:17.752Z,42.22
2018-04-07T06:50:18.002Z,41.36
2018-04-07T06:51:18.178Z,41.70
2018-04-07T06:52:18.419Z,42.66
2018-04-07T06:53:18.611Z,42.85
2018-04-07T06:54:18.821Z,43.21
2018-04-07T06:55:19.034Z,45.20
2018-04-07T06:56:19.254Z,45.87
2018-04-07T06:57:19.473Z,45.79
2018-04-07T06:58:19.703Z,44.93
2018-04-07T06:59:19.912Z,45.05
2018-04-07T07:00:21.670Z,43.90
2018-04-07T07:01:22.164Z,43.43
2018-04-07T07:02:20.377Z,43.98
2018-04-07T07:03:20.600Z,44.19
2018-04-07T07:04:20.821Z,44.00
2018-04-07T07:05:21.033Z,44.38
2018-04-07T07:06:23.168Z,44.09
2018-04-07T07:07:21.380Z,44.02
2018-04-07T07:08:21.611Z,43.14
2018-04-07T07:09:21.827Z,44.81
2018-04-07T07:10:22.040Z,45.41
2018-04-07T07:11:22.263Z,44.98
2018-04-07T07:12:22.480Z,44.13
2018-04-07T07:13:22.699Z,42.41
2018-04-07T07:14:22.919Z,41.86
2018-04-07T07:15:23.128Z,41.04
2018-04-07T07:16:23.353Z,39.72
2018-04-07T07:17:25.196Z,39.14
2018-04-07T07:18:24.140Z,37.62
2018-04-07T07:19:26.673Z,38.12
2018-04-07T07:20:26.676Z,37.64
2018-04-07T07:21:24.256Z,37.35
2018-04-07T07:22:26.172Z,37.24
2018-04-07T07:23:24.661Z,38.54
2018-04-07T07:24:28.248Z,39.62
2018-04-07T07:25:28.564Z,39.72
2018-04-07T07:26:27.139Z,39.33
2018-04-07T07:27:30.524Z,39.73
2018-04-07T07:28:26.132Z,40.31
2018-04-07T07:29:29.784Z,40.45
2018-04-07T07:30:27.277Z,37.85
2018-04-07T07:31:27.989Z,36.62
2018-04-07T07:32:30.659Z,35.47
2018-04-07T07:33:28.179Z,35.31
2018-04-07T07:34:26.786Z,35.38
2018-04-07T07:35:27.012Z,36.08
2018-04-07T07:36:43.176Z,36.53
2018-04-07T07:37:29.176Z,36.72
2018-04-07T07:38:31.177Z,36.47
2018-04-07T07:39:27.759Z,35.04
2018-04-07T07:40:28.002Z,34.09
2018-04-07T07:41:29.680Z,32.95
2018-04-07T07:42:30.171Z,32.87
2018-04-07T07:43:28.517Z,32.57
2018-04-07T07:44:32.677Z,32.51
2018-04-07T07:45:36.671Z,32.44
2018-04-07T07:46:30.147Z,30.51
2018-04-07T07:47:35.412Z,31.85
2018-04-07T07:48:29.518Z,31.28
2018-04-07T07:49:29.730Z,29.75
2018-04-07T07:50:29.988Z,29.74
2018-04-07T07:51:31.671Z,30.12
2018-04-07T07:52:30.322Z,30.15
2018-04-07T07:53:30.551Z,29.36
2018-04-07T07:54:33.625Z,29.78
2018-04-07T07:55:35.146Z,28.70
2018-04-07T07:56:32.671Z,29.39
2018-04-07T07:57:31.272Z,28.80
2018-04-07T07:58:33.227Z,29.27
2018-04-07T07:59:36.629Z,29.27
2018-04-07T08:00:31.876Z,28.91
2018-04-07T08:01:36.999Z,30.57
2018-04-07T08:02:33.310Z,28.54
2018-04-07T08:03:35.204Z,27.56
2018-04-07T08:04:34.179Z,28.19
2018-04-07T08:05:36.671Z,30.22
2018-04-07T08:06:32.909Z,29.77
2018-04-07T08:07:34.675Z,28.50
2018-04-07T08:08:37.139Z,28.40
2018-04-07T08:09:35.223Z,28.62
2018-04-07T08:10:35.178Z,29.43
2018-04-07T08:11:33.772Z,30.49
2018-04-07T08:12:34.012Z,30.52
2018-04-07T08:13:37.132Z,29.66
2018-04-07T08:14:36.247Z,28.81
2018-04-07T08:15:34.595Z,27.37
2018-04-07T08:16:42.142Z,27.96
2018-04-07T08:17:34.868Z,26.79
2018-04-07T08:18:36.682Z,26.31
2018-04-07T08:19:35.344Z,27.56
2018-04-07T08:20:37.237Z,28.05
2018-04-07T08:21:35.730Z,27.36
2018-04-07T08:22:40.112Z,26.19
2018-04-07T08:23:37.703Z,26.10
2018-04-07T08:24:38.223Z,25.84
2018-04-07T08:25:40.175Z,24.85
2018-04-07T08:26:36.775Z,26.20
2018-04-07T08:27:38.705Z,28.04
2018-04-07T08:28:41.176Z,28.75
2018-04-07T08:29:39.752Z,25.19
2018-04-07T08:30:38.687Z,23.46
2018-04-07T08:31:37.803Z,22.71
2018-04-07T08:32:41.132Z,21.84
2018-04-07T08:33:42.186Z,21.75
2018-04-07T08:34:38.416Z,21.73
2018-04-07T08:35:40.177Z,22.30
2018-04-07T08:36:39.872Z,22.77
2018-04-07T08:37:41.664Z,24.23
2018-04-07T08:38:42.075Z,23.07
2018-04-07T08:39:43.174Z,21.14
2018-04-07T08:40:40.030Z,21.93
2018-04-07T08:41:40.634Z,20.29
2018-04-07T08:42:41.675Z,18.73
2018-04-07T08:43:43.675Z,18.04
2018-04-07T08:44:40.221Z,17.74
2018-04-07T08:45:40.405Z,18.22
2018-04-07T08:46:48.176Z,19.88
2018-04-07T08:47:42.716Z,18.71
2018-04-07T08:48:40.960Z,18.05
2018-04-07T08:49:41.053Z,19.87
2018-04-07T08:50:48.209Z,19.37
2018-04-07T08:51:50.128Z,19.64
2018-04-07T08:52:43.681Z,19.85
2018-04-07T08:53:43.676Z,19.66
2018-04-07T08:54:44.648Z,20.34
2018-04-07T08:55:44.192Z,20.65
2018-04-07T08:56:42.529Z,19.90
2018-04-07T08:57:49.733Z,18.37
2018-04-07T08:58:42.886Z,17.78
2018-04-07T08:59:44.679Z,17.01
2018-04-07T09:00:47.202Z,17.10
2018-04-07T09:01:46.173Z,16.78
2018-04-07T09:03:06.191Z,18.49
2018-04-07T09:03:45.690Z,21.33
2018-04-07T09:04:44.089Z,24.14
2018-04-07T09:05:46.640Z,25.23
2018-04-07T09:06:44.385Z,22.98
2018-04-07T09:07:46.182Z,23.08
2018-04-07T09:08:48.675Z,23.01
2018-04-07T09:09:47.653Z,22.06
2018-04-07T09:10:46.675Z,22.77
2018-04-07T09:11:47.262Z,20.37
2018-04-07T09:12:45.491Z,18.33
2018-04-07T09:13:45.737Z,19.02
2018-04-07T09:14:46.909Z,18.25
2018-04-07T09:15:47.686Z,18.26
2018-04-07T09:16:54.177Z,17.58
2018-04-07T09:17:55.211Z,17.78
2018-04-07T09:18:48.669Z,17.90
2018-04-07T09:19:49.738Z,16.64
2018-04-07T09:20:49.006Z,17.13
2018-04-07T09:21:47.319Z,15.57
2018-04-07T09:22:47.436Z,16.64
2018-04-07T09:23:47.701Z,15.56
2018-04-07T09:24:48.647Z,16.35
2018-04-07T09:25:48.179Z,16.94
2018-04-07T09:26:50.179Z,15.28
2018-04-07T09:27:50.213Z,16.26
2018-04-07T09:28:50.194Z,15.66
2018-04-07T09:29:51.687Z,15.84
2018-04-07T09:30:49.164Z,16.53
2018-04-07T09:31:53.195Z,15.85
2018-04-07T09:32:51.184Z,15.84
2018-04-07T09:33:53.683Z,16.63
2018-04-07T09:34:51.686Z,17.77
2018-04-07T09:35:51.717Z,19.64
2018-04-07T09:36:52.187Z,23.08
2018-04-07T09:37:50.529Z,22.12
2018-04-07T09:38:50.754Z,22.83
2018-04-07T09:39:54.676Z,21.30
2018-04-07T09:40:53.178Z,18.79
2018-04-07T09:41:53.190Z,19.86
2018-04-07T09:42:52.177Z,20.14
2018-04-07T09:43:57.048Z,19.86
2018-04-07T09:44:53.268Z,18.62
2018-04-07T09:45:54.182Z,17.96
2018-04-07T09:46:55.839Z,17.88
2018-04-07T09:47:54.226Z,17.21
2018-04-07T09:49:08.676Z,17.52
2018-04-07T09:49:53.049Z,17.34
2018-04-07T09:50:53.355Z,15.88
2018-04-07T09:51:55.175Z,15.78
2018-04-07T09:52:55.180Z,16.47
2018-04-07T09:53:53.899Z,16.36
2018-04-07T09:54:58.629Z,16.17
2018-04-07T09:55:55.444Z,17.31
2018-04-07T09:56:54.646Z,17.12
2018-04-07T09:58:16.824Z,16.95
2018-04-07T09:59:02.697Z,17.35
2018-04-07T09:59:56.685Z,15.60
2018-04-07T10:01:23.187Z,16.39
2018-04-07T10:01:55.520Z,14.54
2018-04-07T10:02:57.642Z,14.84
2018-04-07T10:04:08.636Z,13.48
2018-04-07T10:04:56.116Z,13.67
2018-04-07T10:05:58.323Z,14.34
2018-04-07T10:06:57.643Z,14.15
2018-04-07T10:07:59.636Z,15.09
2018-04-07T10:08:57.004Z,17.06
2018-04-07T10:10:04.197Z,16.44
2018-04-07T10:10:59.181Z,16.96
2018-04-07T10:11:59.211Z,15.67
2018-04-07T10:12:59.714Z,14.88
2018-04-07T10:14:01.716Z,17.52
2018-04-07T10:14:59.256Z,17.52
2018-04-07T10:15:58.385Z,16.36
2018-04-07T10:17:00.175Z,17.24
2018-04-07T10:18:00.674Z,15.80
2018-04-07T10:18:59.034Z,14.03
2018-04-07T10:20:01.173Z,15.91
2018-04-07T10:20:59.397Z,18.23
2018-04-07T10:22:01.177Z,17.29
2018-04-07T10:23:02.674Z,18.26
2018-04-07T10:24:01.067Z,18.91
2018-04-07T10:25:00.220Z,20.77
2018-04-07T10:26:01.444Z,20.06
2018-04-07T10:27:02.200Z,19.98
2018-04-07T10:28:02.705Z,21.01
2018-04-07T10:29:02.689Z,21.78
2018-04-07T10:30:09.626Z,21.58
2018-04-07T10:31:02.130Z,21.56
2018-04-07T10:32:03.191Z,22.06
2018-04-07T10:33:03.203Z,21.88
2018-04-07T10:34:01.823Z,21.61
2018-04-07T10:35:03.676Z,22.47
2018-04-07T10:36:02.291Z,21.82
2018-04-07T10:37:04.182Z,21.05
2018-04-07T10:38:03.698Z,20.97
2018-04-07T10:39:05.662Z,19.53
2018-04-07T10:40:06.712Z,17.90
2018-04-07T10:41:04.709Z,17.90
2018-04-07T10:42:03.419Z,16.89
2018-04-07T10:43:03.705Z,17.99
2018-04-07T10:44:07.600Z,18.55
2018-04-07T10:45:07.673Z,18.85
2018-04-07T10:46:05.141Z,17.11
2018-04-07T10:47:11.186Z,18.98
2018-04-07T10:48:04.591Z,16.46
2018-04-07T10:49:07.718Z,17.83
2018-04-07T10:50:10.954Z,17.82
2018-04-07T10:51:06.150Z,17.32
2018-04-07T10:52:09.173Z,17.32
2018-04-07T10:53:07.174Z,17.23
2018-04-07T10:54:05.906Z,15.67
2018-04-07T10:55:07.711Z,15.98
2018-04-07T10:56:08.228Z,15.40
2018-04-07T10:57:06.553Z,16.09
2018-04-07T10:58:09.634Z,16.88
2018-04-07T10:59:08.681Z,15.01
2018-04-07T11:00:08.706Z,15.12
2018-04-07T11:01:23.186Z,16.19
2018-04-07T11:02:07.518Z,17.13
2018-04-07T11:03:07.742Z,17.33
2018-04-07T11:04:09.690Z,17.33
2018-04-07T11:05:10.673Z,17.62
2018-04-07T11:06:12.189Z,18.78
2018-04-07T11:07:08.559Z,17.68
2018-04-07T11:08:10.684Z,18.86
2018-04-07T11:09:10.044Z,18.00
2018-04-07T11:10:11.177Z,17.03
2018-04-07T11:11:11.163Z,15.98
2018-04-07T11:12:13.690Z,16.58
2018-04-07T11:13:12.699Z,16.86
2018-04-07T11:14:11.683Z,17.06
2018-04-07T11:15:13.134Z,16.19
2018-04-07T11:16:10.637Z,15.78
2018-04-07T11:17:11.867Z,14.92
2018-04-07T11:18:12.697Z,15.92
2018-04-07T11:19:11.315Z,13.68
2018-04-07T11:20:12.554Z,13.29
2018-04-07T11:21:11.823Z,14.18
2018-04-07T11:22:13.692Z,14.20
2018-04-07T11:23:15.675Z,12.81
2018-04-07T11:24:12.409Z,14.08
2018-04-07T11:25:15.234Z,13.39
2018-04-07T11:26:20.634Z,13.59
2018-04-07T11:27:14.657Z,14.86
2018-04-07T11:28:28.696Z,13.49
2018-04-07T11:29:15.177Z,13.59
2018-04-07T11:30:17.188Z,14.18
2018-04-07T11:31:34.692Z,12.62
2018-04-07T11:32:17.686Z,13.32
2018-04-07T11:33:15.678Z,12.63
2018-04-07T11:34:16.191Z,12.12
2018-04-07T11:35:14.430Z,12.81
2018-04-07T11:36:19.009Z,13.19
2018-04-07T11:37:14.877Z,12.91
2018-04-07T11:38:16.722Z,13.89
2018-04-07T11:39:19.173Z,12.32
2018-04-07T11:40:15.528Z,12.61
2018-04-07T11:41:15.766Z,13.49
2018-04-07T11:42:17.678Z,15.73
2018-04-07T11:43:18.722Z,15.34
2018-04-07T11:44:16.328Z,15.54
2018-04-07T11:45:19.189Z,13.88
2018-04-07T11:46:28.686Z,13.75
2018-04-07T11:47:18.695Z,15.41
2018-04-07T11:48:17.195Z,15.81
2018-04-07T11:49:20.132Z,14.65
2018-04-07T11:50:21.188Z,15.83
2018-04-07T11:51:17.798Z,14.97
2018-04-07T11:52:19.035Z,14.17
2018-04-07T11:53:25.175Z,14.14
2018-04-07T11:54:19.434Z,15.20
2018-04-07T11:55:20.674Z,14.91
2018-04-07T11:56:20.688Z,15.29
2018-04-07T11:57:22.635Z,17.45
2018-04-07T11:58:20.690Z,16.35
2018-04-07T11:59:21.224Z,17.92
2018-04-07T12:00:19.811Z,16.47
2018-04-07T12:01:21.680Z,16.16
2018-04-07T12:02:23.740Z,15.59
2018-04-07T12:03:20.400Z,16.83
2018-04-07T12:04:23.178Z,18.35
2018-04-07T12:05:20.802Z,17.85
2018-04-07T12:06:22.680Z,18.83
2018-04-07T12:07:22.673Z,19.82
2018-04-07T12:08:23.127Z,19.64
2018-04-07T12:09:22.639Z,17.62
2018-04-07T12:10:21.804Z,17.43
2018-04-07T12:11:21.998Z,17.13
2018-04-07T12:12:22.223Z,16.56
2018-04-07T12:13:22.478Z,16.19
2018-04-07T12:14:25.211Z,16.27
2018-04-07T12:15:22.802Z,15.80
2018-04-07T12:16:24.669Z,15.61
2018-04-07T12:17:23.136Z,13.85
2018-04-07T12:18:24.393Z,14.04
2018-04-07T12:19:23.504Z,14.21
2018-04-07T12:20:24.674Z,15.26
2018-04-07T12:21:39.711Z,17.77
2018-04-07T12:22:25.671Z,17.74
2018-04-07T12:23:25.675Z,20.17
2018-04-07T12:24:24.411Z,19.59
2018-04-07T12:25:26.221Z,20.97
2018-04-07T12:26:47.719Z,18.94
2018-04-07T12:27:28.680Z,17.30
2018-04-07T12:28:25.152Z,17.03
2018-04-07T12:29:27.176Z,16.54
2018-04-07T12:30:27.196Z,16.83
2018-04-07T12:31:48.169Z,16.36
2018-04-07T12:32:27.711Z,16.16
2018-04-07T12:33:28.698Z,16.64
2018-04-07T12:34:29.686Z,16.85
2018-04-07T12:35:26.472Z,17.22
2018-04-07T12:36:26.660Z,17.91
2018-04-07T12:37:30.126Z,18.19
2018-04-07T12:38:28.670Z,17.41
2018-04-07T12:39:33.773Z,18.17
2018-04-07T12:40:29.173Z,17.80
2018-04-07T12:41:27.658Z,18.09
2018-04-07T12:42:27.868Z,19.45
2018-04-07T12:43:30.723Z,17.79
2018-04-07T12:44:28.253Z,17.31
2018-04-07T12:45:28.390Z,18.01
2018-04-07T12:46:29.624Z,18.80
2018-04-07T12:47:31.673Z,15.50
2018-04-07T12:48:30.670Z,14.90
2018-04-07T12:49:45.174Z,15.66
2018-04-07T12:50:30.230Z,16.73
2018-04-07T12:51:29.729Z,17.13
2018-04-07T12:52:33.806Z,16.63
2018-04-07T12:53:45.668Z,17.70
2018-04-07T12:54:30.250Z,15.47
2018-04-07T12:55:32.169Z,15.48